sensor_id;sensor_type;location;lat;lon;timestamp;temperature;humidity
1568;DHT22;777;47.156;8.326;2024-02-04T00:02:06;1.60;99.90
1568;DHT22;777;47.156;8.326;2024-02-04T00:32:09;1.50;99.90
1568;DHT22;777;47.156;8.326;2024-02-04T01:02:13;1.20;99.90
1568;DHT22;777;47.156;8.326;2024-02-04T01:32:16;1.30;99.90
1568;DHT22;777;47.156;8.326;2024-02-04T02:02:20;2.20;99.90
1568;DHT22;777;47.156;8.326;2024-02-04T02:32:23;2.50;99.90
1568;DHT22;777;47.156;8.326;2024-02-04T03:02:27;2.70;99.90
1568;DHT22;777;47.156;8.326;2024-02-04T03:32:30;2.80;99.90
1568;DHT22;777;47.156;8.326;2024-02-04T04:02:37;2.80;99.90
1568;DHT22;777;47.156;8.326;2024-02-04T04:32:41;2.90;99.90
1568;DHT22;777;47.156;8.326;2024-02-04T05:02:44;2.80;99.90
1568;DHT22;777;47.156;8.326;2024-02-04T05:32:48;2.70;99.90
1568;DHT22;777;47.156;8.326;2024-02-04T06:02:51;2.80;99.90
1568;DHT22;777;47.156;8.326;2024-02-04T06:32:54;2.40;99.90
1568;DHT22;777;47.156;8.326;2024-02-04T07:02:58;2.40;99.90
1568;DHT22;777;47.156;8.326;2024-02-04T07:33:02;2.60;99.90
1568;DHT22;777;47.156;8.326;2024-02-04T08:03:06;2.70;99.90
1568;DHT22;777;47.156;8.326;2024-02-04T08:33:09;2.60;99.90
1568;DHT22;777;47.156;8.326;2024-02-04T09:03:13;3.00;99.90
1568;DHT22;777;47.156;8.326;2024-02-04T09:33:16;3.30;99.90
1568;DHT22;777;47.156;8.326;2024-02-04T10:03:20;4.20;99.90
1568;DHT22;777;47.156;8.326;2024-02-04T10:33:24;4.90;99.90
1568;DHT22;777;47.156;8.326;2024-02-04T11:03:28;5.30;99.90
1568;DHT22;777;47.156;8.326;2024-02-04T11:33:32;4.80;99.90
1568;DHT22;777;47.156;8.326;2024-02-04T12:03:36;5.40;99.90
1568;DHT22;777;47.156;8.326;2024-02-04T12:33:41;6.20;99.90
1568;DHT22;777;47.156;8.326;2024-02-04T13:03:44;9.30;99.90
1568;DHT22;777;47.156;8.326;2024-02-04T13:33:52;7.80;99.90
1568;DHT22;777;47.156;8.326;2024-02-04T14:03:55;10.00;99.90
1568;DHT22;777;47.156;8.326;2024-02-04T14:33:59;14.40;99.90
1568;DHT22;777;47.156;8.326;2024-02-04T15:04:03;11.60;99.90
1568;DHT22;777;47.156;8.326;2024-02-04T15:34:08;10.00;99.90
1568;DHT22;777;47.156;8.326;2024-02-04T16:04:12;8.30;99.90
1568;DHT22;777;47.156;8.326;2024-02-04T16:34:18;7.50;99.90
1568;DHT22;777;47.156;8.326;2024-02-04T17:04:22;6.50;99.90
1568;DHT22;777;47.156;8.326;2024-02-04T17:34:27;5.20;99.90
1568;DHT22;777;47.156;8.326;2024-02-04T18:04:30;4.50;99.90
1568;DHT22;777;47.156;8.326;2024-02-04T18:34:33;3.90;99.90
1568;DHT22;777;47.156;8.326;2024-02-04T19:04:37;3.40;99.90
1568;DHT22;777;47.156;8.326;2024-02-04T19:34:41;2.80;99.90
1568;DHT22;777;47.156;8.326;2024-02-04T20:04:45;2.80;99.90
1568;DHT22;777;47.156;8.326;2024-02-04T20:34:49;2.80;99.90
1568;DHT22;777;47.156;8.326;2024-02-04T21:04:52;2.60;99.90
1568;DHT22;777;47.156;8.326;2024-02-04T21:34:56;2.20;99.90
1568;DHT22;777;47.156;8.326;2024-02-04T22:04:59;2.40;99.90
1568;DHT22;777;47.156;8.326;2024-02-04T22:35:03;2.10;99.90
1568;DHT22;777;47.156;8.326;2024-02-04T23:05:07;2.90;99.90
1568;DHT22;777;47.156;8.326;2024-02-04T23:35:13;1.90;99.90
